Time;durP1;ratioP1;P1;durP2;ratioP2;P2;SDS_P1;SDS_P2;PMS_P1;PMS_P2;Temp;Humidity;BMP_temperature;BMP_pressure;BME280_temperature;BME280_humidity;BME280_pressure;Samples;Min_cycle;Max_cycle;Signal;HPM_P1;HPM_P2
2022/09/14 00:01:17;;;;;;;3.35;2.40;;;;;;;14.40;nan;-24218.91;5038057;28;20183;-73
2022/09/14 00:03:43;;;;;;;2.97;2.38;;;;;;;13.81;nan;-24202.50;5024380;28;20183;-73
2022/09/14 00:06:12;;;;;;;4.45;2.45;;;;;;;14.26;nan;-24214.84;5045389;28;20508;-73
2022/09/14 00:08:38;;;;;;;3.20;2.60;;;;;;;13.95;nan;-24206.41;5043044;28;20630;-74
2022/09/14 00:11:12;;;;;;;4.78;2.35;;;;;;;14.04;nan;-24208.81;5048371;28;20289;-74
2022/09/14 00:13:40;;;;;;;4.00;2.80;;;;;;;14.03;nan;-24208.66;5043643;28;20181;-74
2022/09/14 00:16:10;;;;;;;2.85;2.08;;;;;;;14.14;nan;-24211.75;5047006;28;20190;-72
2022/09/14 00:18:36;;;;;;;2.75;2.47;;;;;;;14.09;nan;-24210.34;5041401;28;20270;-73
2022/09/14 00:21:04;;;;;;;3.33;2.38;;;;;;;14.22;nan;-24213.84;5038412;28;20814;-75
2022/09/14 00:23:29;;;;;;;3.42;2.47;;;;;;;13.95;nan;-24206.28;5039447;28;20191;-74
2022/09/14 00:26:02;;;;;;;2.38;2.17;;;;;;;14.15;nan;-24212.03;5037995;28;20674;-74
2022/09/14 00:28:27;;;;;;;3.63;2.58;;;;;;;14.03;nan;-24208.66;5033544;28;20190;-72
2022/09/14 00:30:53;;;;;;;2.58;2.33;;;;;;;14.15;nan;-24212.03;5044649;28;20591;-74
2022/09/14 00:33:18;;;;;;;3.90;2.40;;;;;;;13.63;nan;-24197.44;5035326;28;20236;-73
2022/09/14 00:35:43;;;;;;;3.38;2.50;;;;;;;13.79;nan;-24201.91;5041416;28;20252;-73
2022/09/14 00:38:09;;;;;;;3.40;2.65;;;;;;;13.90;nan;-24205.00;5036553;28;20184;-74
2022/09/14 00:40:36;;;;;;;4.13;2.63;;;;;;;13.46;nan;-24192.78;5046032;28;20190;-74
2022/09/14 00:43:02;;;;;;;3.28;2.65;;;;;;;13.50;nan;-24193.78;5041923;28;20171;-74
2022/09/14 00:45:28;;;;;;;2.90;2.13;;;;;;;13.58;nan;-24196.03;5033011;28;20260;-74
2022/09/14 00:47:55;;;;;;;3.00;2.50;;;;;;;13.49;nan;-24193.63;5039564;28;20655;-73
2022/09/14 00:50:21;;;;;;;3.53;2.38;;;;;;;13.62;nan;-24197.16;5044247;28;20246;-74
2022/09/14 00:52:49;;;;;;;3.67;2.65;;;;;;;13.12;nan;-24183.38;5037173;28;20218;-74
2022/09/14 00:55:19;;;;;;;3.38;2.47;;;;;;;13.36;nan;-24190.00;5056226;28;20191;-74
2022/09/14 00:57:49;;;;;;;2.97;2.35;;;;;;;13.54;nan;-24195.03;5042423;28;20361;-73
2022/09/14 01:00:20;;;;;;;3.63;2.65;;;;;;;13.71;nan;-24199.69;5034444;28;20248;-72
2022/09/14 01:02:46;;;;;;;3.17;2.40;;;;;;;13.82;nan;-24202.78;5036918;28;20187;-74
2022/09/14 01:05:13;;;;;;;3.72;2.63;;;;;;;14.11;nan;-24210.75;5042076;28;20197;-73
2022/09/14 01:08:09;;;;;;;2.47;2.28;;;;;;;14.16;nan;-24212.31;5042951;28;20188;-75
2022/09/14 01:10:46;;;;;;;2.70;2.35;;;;;;;13.99;nan;-24207.53;5044856;28;20233;-73
2022/09/14 01:13:21;;;;;;;3.35;2.65;;;;;;;13.95;nan;-24206.41;5043411;28;20642;-74
2022/09/14 01:16:14;;;;;;;3.50;2.28;;;;;;;13.80;nan;-24202.06;5041327;28;20656;-74
2022/09/14 01:18:45;;;;;;;3.08;2.45;;;;;;;13.52;nan;-24194.34;5040869;28;20186;-74
2022/09/14 01:21:27;;;;;;;4.45;2.50;;;;;;;13.80;nan;-24202.19;5002653;28;1128067;-74
2022/09/14 01:24:26;;;;;;;3.00;2.40;;;;;;;13.83;nan;-24202.91;5045429;28;20191;-74
2022/09/14 01:27:18;;;;;;;2.40;2.20;;;;;;;13.47;nan;-24192.94;5032845;28;20253;-74
2022/09/14 01:29:56;;;;;;;3.58;2.60;;;;;;;13.48;nan;-24193.22;5040531;28;20186;-73
2022/09/14 01:32:31;;;;;;;3.22;2.65;;;;;;;13.27;nan;-24187.59;5033810;28;20190;-73
2022/09/14 01:35:02;;;;;;;3.50;2.72;;;;;;;13.57;nan;-24195.75;5037844;28;20190;-73
2022/09/14 01:37:30;;;;;;;5.25;3.00;;;;;;;13.46;nan;-24192.66;5024886;28;20215;-74
2022/09/14 01:40:23;;;;;;;2.50;2.30;;;;;;;13.50;nan;-24193.78;5045234;28;20283;-74
2022/09/14 01:42:54;;;;;;;3.47;2.70;;;;;;;13.19;nan;-24185.22;5045585;28;20253;-74
2022/09/14 01:45:23;;;;;;;3.17;2.58;;;;;;;13.44;nan;-24192.25;5037764;28;20599;-73
2022/09/14 01:47:56;;;;;;;3.38;2.53;;;;;;;13.41;nan;-24191.25;5043655;28;20207;-73
2022/09/14 01:50:38;;;;;;;2.95;2.20;;;;;;;13.31;nan;-24188.44;5040538;28;20227;-73
2022/09/14 01:53:15;;;;;;;2.97;2.40;;;;;;;12.87;nan;-24176.34;5031829;28;20610;-73
2022/09/14 01:55:46;;;;;;;5.70;2.88;;;;;;;12.84;nan;-24175.50;5035750;28;20665;-73
2022/09/14 01:58:21;;;;;;;2.97;2.25;;;;;;;13.18;nan;-24185.06;5049551;28;20178;-74
2022/09/14 02:00:49;;;;;;;3.78;2.92;;;;;;;13.14;nan;-24183.81;5048960;28;20189;-73
2022/09/14 02:03:20;;;;;;;5.13;2.58;;;;;;;13.40;nan;-24190.97;5037283;28;20581;-74
2022/09/14 02:05:56;;;;;;;3.45;2.55;;;;;;;13.12;nan;-24183.38;5042125;28;20269;-72
2022/09/14 02:08:24;;;;;;;3.38;2.33;;;;;;;13.39;nan;-24190.69;5041063;28;20190;-74
2022/09/14 02:10:49;;;;;;;4.80;2.72;;;;;;;13.36;nan;-24190.00;5041881;28;20693;-74
2022/09/14 02:13:15;;;;;;;3.28;2.53;;;;;;;13.18;nan;-24185.06;5037874;28;20186;-73
2022/09/14 02:15:41;;;;;;;4.07;2.53;;;;;;;13.18;nan;-24185.06;5038267;28;20189;-74
2022/09/14 02:18:07;;;;;;;4.55;2.67;;;;;;;12.88;nan;-24176.63;5042668;28;20179;-74
2022/09/14 02:20:38;;;;;;;3.72;2.60;;;;;;;13.22;nan;-24186.19;5039326;28;20222;-74
2022/09/14 02:23:04;;;;;;;3.95;2.67;;;;;;;12.85;nan;-24175.78;5044752;28;20179;-72
2022/09/14 02:25:30;;;;;;;3.67;2.75;;;;;;;13.15;nan;-24184.22;5056179;28;20184;-74
2022/09/14 02:27:55;;;;;;;4.32;2.33;;;;;;;13.02;nan;-24180.44;5032039;28;20179;-73
2022/09/14 02:30:21;;;;;;;3.92;2.65;;;;;;;12.94;nan;-24178.19;5039325;28;20214;-74
2022/09/14 02:32:54;;;;;;;4.15;2.67;;;;;;;13.06;nan;-24181.69;5035832;28;20229;-74
2022/09/14 02:35:31;;;;;;;4.15;2.70;;;;;;;12.92;nan;-24177.63;5046395;28;20187;-74
2022/09/14 02:38:01;;;;;;;3.83;2.70;;;;;;;13.01;nan;-24180.16;5033482;28;20195;-72
2022/09/14 02:41:07;;;;;;;4.20;2.53;;;;;;;12.70;nan;-24171.72;5039906;28;20175;-74
2022/09/14 02:43:39;;;;;;;3.78;2.50;;;;;;;13.07;nan;-24181.97;5041287;28;20190;-73
2022/09/14 02:46:05;;;;;;;3.03;2.50;;;;;;;13.05;nan;-24181.41;5047709;28;20183;-73
2022/09/14 02:49:03;;;;;;;3.00;2.28;;;;;;;12.77;nan;-24173.53;5034513;28;20634;-72
2022/09/14 02:51:44;;;;;;;4.63;2.60;;;;;;;12.75;nan;-24172.97;5037382;28;20738;-74
2022/09/14 02:54:12;;;;;;;5.47;3.30;;;;;;;12.59;nan;-24168.63;5054441;28;20560;-72
2022/09/14 02:56:38;;;;;;;2.45;2.17;;;;;;;12.65;nan;-24170.16;5040023;28;20654;-73
2022/09/14 02:59:04;;;;;;;4.50;2.85;;;;;;;12.96;nan;-24178.75;5047760;28;20178;-72
2022/09/14 03:01:29;;;;;;;4.50;2.90;;;;;;;12.66;nan;-24170.44;5031772;28;20232;-72
2022/09/14 03:03:55;;;;;;;4.20;2.88;;;;;;;12.93;nan;-24178.03;5037928;28;20187;-74
2022/09/14 03:06:21;;;;;;;3.25;2.45;;;;;;;12.74;nan;-24172.69;5043003;28;20701;-74
2022/09/14 03:08:47;;;;;;;3.88;3.13;;;;;;;12.66;nan;-24170.59;5031838;28;20194;-73
2022/09/14 03:11:12;;;;;;;2.90;2.50;;;;;;;13.01;nan;-24180.16;5045320;28;20214;-72
2022/09/14 03:13:38;;;;;;;4.28;3.10;;;;;;;12.64;nan;-24170.03;5039591;28;20179;-72
2022/09/14 03:16:09;;;;;;;3.33;2.63;;;;;;;12.35;nan;-24161.88;5046311;28;20676;-72
2022/09/14 03:18:36;;;;;;;3.53;2.65;;;;;;;12.73;nan;-24172.56;5043196;28;20214;-73
2022/09/14 03:21:04;;;;;;;3.15;2.55;;;;;;;12.60;nan;-24168.75;5043087;28;20574;-71
2022/09/14 03:23:30;;;;;;;3.40;2.40;;;;;;;12.43;nan;-24164.13;5036249;28;20252;-72
2022/09/14 03:25:55;;;;;;;4.97;2.88;;;;;;;12.73;nan;-24172.56;5041149;28;20638;-73
2022/09/14 03:28:21;;;;;;;5.50;3.15;;;;;;;12.51;nan;-24166.22;5045938;28;20179;-72
2022/09/14 03:30:47;;;;;;;3.00;2.58;;;;;;;12.31;nan;-24160.75;5035542;28;20275;-71
2022/09/14 03:33:14;;;;;;;3.90;2.63;;;;;;;12.26;nan;-24159.34;5036015;28;20511;-73
2022/09/14 03:35:39;;;;;;;2.50;2.20;;;;;;;12.81;nan;-24174.81;5034629;28;20179;-72
2022/09/14 03:38:05;;;;;;;3.72;2.47;;;;;;;12.65;nan;-24170.31;5033207;28;20544;-75
2022/09/14 03:40:31;;;;;;;3.80;2.60;;;;;;;12.71;nan;-24171.84;5035052;28;20182;-72
2022/09/14 03:42:56;;;;;;;7.88;2.92;;;;;;;12.59;nan;-24168.47;5040921;28;20222;-73
2022/09/14 03:45:22;;;;;;;4.45;3.10;;;;;;;12.20;nan;-24157.66;5033546;28;20179;-73
2022/09/14 03:47:48;;;;;;;3.67;2.80;;;;;;;12.44;nan;-24164.25;5033957;28;20175;-73
2022/09/14 03:50:17;;;;;;;2.92;2.20;;;;;;;12.52;nan;-24166.50;5034990;28;20218;-73
2022/09/14 03:52:42;;;;;;;3.92;2.83;;;;;;;12.65;nan;-24170.31;5033842;28;20204;-72
2022/09/14 03:55:09;;;;;;;4.10;2.70;;;;;;;12.71;nan;-24171.84;5033350;28;20216;-73
2022/09/14 03:57:35;;;;;;;5.63;3.45;;;;;;;12.63;nan;-24169.75;5032653;28;20180;-73
2022/09/14 04:00:01;;;;;;;3.83;2.78;;;;;;;12.66;nan;-24170.44;5031654;28;20201;-73
2022/09/14 04:02:28;;;;;;;3.45;2.53;;;;;;;12.76;nan;-24173.25;5035012;28;20232;-73
2022/09/14 04:04:54;;;;;;;4.18;2.80;;;;;;;12.77;nan;-24173.69;5034138;28;20180;-73
2022/09/14 04:07:19;;;;;;;3.20;2.55;;;;;;;12.55;nan;-24167.50;5035511;28;20190;-72
2022/09/14 04:09:45;;;;;;;5.40;3.22;;;;;;;12.43;nan;-24163.97;5034074;28;20180;-72
2022/09/14 04:12:10;;;;;;;3.20;2.70;;;;;;;12.74;nan;-24172.84;5033793;28;20187;-73
2022/09/14 04:14:36;;;;;;;5.45;3.08;;;;;;;12.49;nan;-24165.66;5038556;28;20197;-75
2022/09/14 04:17:02;;;;;;;4.40;2.67;;;;;;;12.58;nan;-24168.19;5044118;28;20195;-74
2022/09/14 04:19:28;;;;;;;6.72;2.80;;;;;;;12.70;nan;-24171.56;5045991;28;20248;-74
2022/09/14 04:21:53;;;;;;;3.35;2.90;;;;;;;13.19;nan;-24185.34;5047295;28;20223;-73
2022/09/14 04:24:19;;;;;;;6.40;3.38;;;;;;;13.12;nan;-24183.38;5045343;28;20695;-73
2022/09/14 04:26:45;;;;;;;3.95;2.75;;;;;;;12.64;nan;-24169.88;5034825;28;20198;-74
2022/09/14 04:29:11;;;;;;;4.70;2.75;;;;;;;12.98;nan;-24179.44;5037183;28;20539;-73
2022/09/14 04:31:37;;;;;;;4.93;3.17;;;;;;;12.88;nan;-24176.50;5037220;28;20210;-73
2022/09/14 04:34:03;;;;;;;4.43;3.05;;;;;;;12.87;nan;-24176.22;5038657;28;20576;-74
2022/09/14 04:36:29;;;;;;;4.05;2.80;;;;;;;13.22;nan;-24186.06;5040485;28;20723;-74
2022/09/14 04:38:58;;;;;;;5.35;2.95;;;;;;;13.45;nan;-24192.53;5038863;28;20175;-73
2022/09/14 04:41:24;;;;;;;5.60;3.13;;;;;;;13.39;nan;-24190.84;5035169;28;20607;-74
2022/09/14 04:43:51;;;;;;;3.83;2.70;;;;;;;13.53;nan;-24194.75;5038951;28;20186;-73
2022/09/14 04:46:19;;;;;;;4.22;2.80;;;;;;;13.65;nan;-24198.00;5038454;28;20277;-73
2022/09/14 04:48:44;;;;;;;4.55;2.65;;;;;;;13.76;nan;-24201.09;5039201;28;20183;-72
2022/09/14 04:51:18;;;;;;;5.20;2.92;;;;;;;13.58;nan;-24196.03;5033297;28;20261;-73
2022/09/14 04:53:46;;;;;;;5.50;2.83;;;;;;;14.04;nan;-24208.94;5035592;28;20190;-72
2022/09/14 04:56:13;;;;;;;3.80;2.80;;;;;;;14.14;nan;-24211.75;5041817;28;20213;-73
2022/09/14 04:58:42;;;;;;;4.63;2.65;;;;;;;14.03;nan;-24208.66;5043568;28;20183;-72
2022/09/14 05:01:11;;;;;;;4.30;2.83;;;;;;;14.49;nan;-24221.28;5037887;28;20658;-73
2022/09/14 05:03:38;;;;;;;3.53;2.47;;;;;;;14.35;nan;-24217.34;5043440;28;20180;-73
2022/09/14 05:06:08;;;;;;;5.60;3.05;;;;;;;14.59;nan;-24224.22;5035200;28;20589;-74
2022/09/14 05:08:35;;;;;;;4.80;3.13;;;;;;;14.98;nan;-24234.88;5043635;28;20198;-74
2022/09/14 05:11:01;;;;;;;3.85;2.90;;;;;;;14.96;nan;-24234.47;5037084;28;20207;-64
2022/09/14 05:13:26;;;;;;;4.10;2.80;;;;;;;15.37;nan;-24245.81;5034305;28;20679;-63
2022/09/14 05:15:52;;;;;;;5.20;2.60;;;;;;;15.24;nan;-24242.03;5032857;28;20180;-63
2022/09/14 05:18:18;;;;;;;4.72;2.92;;;;;;;15.42;nan;-24247.06;5032897;28;20171;-63
2022/09/14 05:20:44;;;;;;;5.45;3.00;;;;;;;15.69;nan;-24254.63;5033010;28;20223;-63
2022/09/14 05:23:10;;;;;;;4.53;3.10;;;;;;;15.20;nan;-24241.06;5033101;28;20171;-63
2022/09/14 05:25:36;;;;;;;4.47;2.92;;;;;;;15.27;nan;-24243.00;5031664;28;20181;-64
2022/09/14 05:28:01;;;;;;;3.30;2.60;;;;;;;15.69;nan;-24254.63;5032221;28;20268;-64
2022/09/14 05:30:27;;;;;;;3.67;2.45;;;;;;;16.09;nan;-24265.69;5032492;28;20215;-65
2022/09/14 05:32:52;;;;;;;2.97;2.30;;;;;;;16.07;nan;-24265.00;5031579;28;20175;-64
2022/09/14 05:35:17;;;;;;;4.22;3.08;;;;;;;16.15;nan;-24267.22;5032914;28;20179;-64
2022/09/14 05:37:43;;;;;;;4.22;2.75;;;;;;;15.94;nan;-24261.50;5033216;28;20225;-64
2022/09/14 05:40:09;;;;;;;5.18;3.30;;;;;;;16.09;nan;-24265.56;5032729;28;20218;-64
2022/09/14 05:42:34;;;;;;;4.53;2.65;;;;;;;16.40;nan;-24274.06;5032861;28;20199;-65
2022/09/14 05:45:00;;;;;;;3.15;2.85;;;;;;;16.73;nan;-24283.44;5031388;28;20532;-65
2022/09/14 05:47:28;;;;;;;4.05;2.88;;;;;;;16.68;nan;-24282.03;5032527;28;20584;-64
2022/09/14 05:49:53;;;;;;;3.03;2.42;;;;;;;16.66;nan;-24281.50;5032202;28;20198;-64
2022/09/14 05:52:19;;;;;;;4.85;2.90;;;;;;;16.68;nan;-24282.03;5031323;28;20179;-65
2022/09/14 05:54:45;;;;;;;3.75;2.58;;;;;;;16.92;nan;-24288.63;5032561;28;20230;-64
2022/09/14 05:57:10;;;;;;;3.80;2.50;;;;;;;16.82;nan;-24285.69;5032502;28;20222;-64
2022/09/14 05:59:36;;;;;;;4.13;2.67;;;;;;;16.97;nan;-24289.88;5032770;28;20570;-64
2022/09/14 06:02:01;;;;;;;4.30;2.88;;;;;;;17.27;nan;-24298.09;5032904;28;20167;-64
2022/09/14 06:04:27;;;;;;;3.55;2.58;;;;;;;17.57;nan;-24306.63;5033062;28;20175;-63
2022/09/14 06:06:52;;;;;;;4.25;2.65;;;;;;;17.52;nan;-24305.09;5032243;28;20182;-64
2022/09/14 06:09:17;;;;;;;6.07;2.63;;;;;;;17.59;nan;-24307.19;5032106;28;20178;-64
2022/09/14 06:11:43;;;;;;;4.40;2.60;;;;;;;17.80;nan;-24312.75;5037138;28;20356;-64
2022/09/14 06:14:08;;;;;;;5.30;3.00;;;;;;;17.84;nan;-24314.00;5041263;28;20180;-64
2022/09/14 06:16:34;;;;;;;4.13;2.55;;;;;;;18.07;nan;-24320.28;5032384;28;20187;-64
2022/09/14 06:18:59;;;;;;;5.50;2.67;;;;;;;17.89;nan;-24315.28;5031372;28;20183;-64
2022/09/14 06:21:34;;;;;;;4.45;2.78;;;;;;;18.60;nan;-24334.91;5032426;28;20342;-64
2022/09/14 06:23:59;;;;;;;4.03;2.53;;;;;;;18.63;nan;-24335.63;5031834;28;20181;-64
2022/09/14 06:26:25;;;;;;;6.13;2.78;;;;;;;18.95;nan;-24344.53;5032356;28;20167;-64
2022/09/14 06:28:51;;;;;;;6.40;2.55;;;;;;;19.11;nan;-24348.84;5032302;28;20175;-64
2022/09/14 06:31:21;;;;;;;3.30;2.50;;;;;;;19.41;nan;-24357.19;5032225;28;20604;-65
2022/09/14 06:33:47;;;;;;;3.90;2.58;;;;;;;19.66;nan;-24364.00;5032150;28;20179;-65
2022/09/14 06:36:18;;;;;;;4.03;3.00;;;;;;;19.59;nan;-24362.19;5031634;28;20221;-65
2022/09/14 06:38:45;;;;;;;3.45;2.50;;;;;;;19.69;nan;-24364.84;5032423;28;20171;-65
2022/09/14 06:41:13;;;;;;;3.42;2.30;;;;;;;20.04;nan;-24374.56;5032137;28;20726;-65
2022/09/14 06:43:40;;;;;;;3.83;2.55;;;;;;;20.28;nan;-24381.09;5032417;28;20488;-65
2022/09/14 06:46:13;;;;;;;2.85;2.20;;;;;;;19.93;nan;-24371.50;5032232;28;20182;-64
2022/09/14 06:48:44;;;;;;;3.42;2.30;;;;;;;20.18;nan;-24378.31;5032218;28;20207;-65
2022/09/14 06:51:11;;;;;;;3.20;2.20;;;;;;;20.41;nan;-24384.72;5030624;28;20230;-67
2022/09/14 06:53:36;;;;;;;2.83;2.22;;;;;;;20.70;nan;-24392.63;5032262;28;20180;-65
2022/09/14 06:56:02;;;;;;;3.83;2.38;;;;;;;20.48;nan;-24386.66;5031966;28;20185;-65
2022/09/14 06:58:27;;;;;;;3.90;2.20;;;;;;;20.64;nan;-24391.09;5032223;28;20188;-65
2022/09/14 07:00:53;;;;;;;2.72;2.28;;;;;;;20.93;nan;-24399.00;5031995;28;20171;-65
2022/09/14 07:03:18;;;;;;;4.70;2.78;;;;;;;21.18;nan;-24405.66;5031480;28;20606;-66
2022/09/14 07:05:43;;;;;;;4.03;2.75;;;;;;;21.06;nan;-24402.47;5031750;28;20172;-66
2022/09/14 07:08:09;;;;;;;6.53;2.92;;;;;;;21.17;nan;-24405.53;5031968;28;20738;-65
2022/09/14 07:10:34;;;;;;;3.42;2.38;;;;;;;21.71;nan;-24420.22;5031579;28;20621;-65
2022/09/14 07:13:00;;;;;;;3.42;2.35;;;;;;;21.70;nan;-24420.06;5031449;28;20258;-66
2022/09/14 07:15:25;;;;;;;4.18;2.55;;;;;;;21.92;nan;-24426.16;5031658;28;20167;-65
2022/09/14 07:17:51;;;;;;;3.38;2.60;;;;;;;22.03;nan;-24429.09;5031572;28;20171;-66
2022/09/14 07:20:16;;;;;;;4.57;2.60;;;;;;;21.95;nan;-24427.00;5031313;28;20684;-65
2022/09/14 07:22:41;;;;;;;3.85;2.95;;;;;;;21.97;nan;-24427.56;5031899;28;20209;-66
2022/09/14 07:25:08;;;;;;;4.68;2.80;;;;;;;22.11;nan;-24431.16;5031679;28;20171;-65
2022/09/14 07:27:33;;;;;;;4.18;2.63;;;;;;;22.05;nan;-24429.63;5031713;28;20647;-66
2022/09/14 07:29:59;;;;;;;4.30;2.30;;;;;;;22.40;nan;-24439.19;5031208;28;20206;-65
2022/09/14 07:32:24;;;;;;;4.03;2.70;;;;;;;22.17;nan;-24432.97;5031535;28;20257;-65
2022/09/14 07:34:50;;;;;;;3.88;2.40;;;;;;;22.46;nan;-24440.97;5031252;28;20194;-67
2022/09/14 07:37:15;;;;;;;8.38;2.85;;;;;;;22.43;nan;-24440.00;5031580;28;20171;-66
2022/09/14 07:39:41;;;;;;;4.20;2.65;;;;;;;22.63;nan;-24445.53;5031342;28;20210;-66
2022/09/14 07:42:06;;;;;;;3.55;2.35;;;;;;;22.68;nan;-24446.78;5031208;28;20175;-66
2022/09/14 07:44:31;;;;;;;3.55;2.13;;;;;;;22.63;nan;-24445.53;5031556;28;20627;-66
2022/09/14 07:46:57;;;;;;;3.83;2.78;;;;;;;22.68;nan;-24446.94;5031205;28;20643;-66
2022/09/14 07:49:22;;;;;;;3.30;2.33;;;;;;;23.08;nan;-24457.72;5033447;28;20292;-66
2022/09/14 07:51:48;;;;;;;2.63;2.30;;;;;;;22.84;nan;-24451.22;5035137;28;20207;-65
2022/09/14 07:54:15;;;;;;;2.35;1.98;;;;;;;23.16;nan;-24459.94;5034969;28;20598;-66
2022/09/14 07:56:42;;;;;;;3.65;2.05;;;;;;;23.05;nan;-24457.03;5037438;28;20189;-66
2022/09/14 07:59:12;;;;;;;3.13;2.20;;;;;;;23.32;nan;-24464.47;5049000;28;20644;-66
2022/09/14 08:01:38;;;;;;;3.17;2.00;;;;;;;23.39;nan;-24466.28;5042344;28;20187;-66
2022/09/14 08:04:03;;;;;;;2.88;2.30;;;;;;;23.63;nan;-24472.78;5034580;28;20188;-66
2022/09/14 08:06:30;;;;;;;2.50;2.20;;;;;;;23.73;nan;-24475.53;5034989;28;20172;-66
2022/09/14 08:08:56;;;;;;;4.07;2.20;;;;;;;23.97;nan;-24482.16;5034842;28;20191;-66
2022/09/14 08:11:21;;;;;;;3.60;2.15;;;;;;;24.12;nan;-24486.16;5035573;28;20250;-66
2022/09/14 08:14:02;;;;;;;3.65;2.20;;;;;;;24.11;nan;-24485.88;5045053;28;20668;-66
2022/09/14 08:16:29;;;;;;;2.78;2.03;;;;;;;24.09;nan;-24485.47;5035010;28;20534;-66
2022/09/14 08:18:59;;;;;;;3.25;2.05;;;;;;;24.13;nan;-24486.56;5044709;28;20195;-65
2022/09/14 08:21:26;;;;;;;2.88;2.17;;;;;;;24.14;nan;-24486.84;5041033;28;20229;-66
2022/09/14 08:23:53;;;;;;;2.75;1.90;;;;;;;24.14;nan;-24486.69;5034888;28;20274;-66
2022/09/14 08:26:21;;;;;;;2.88;2.05;;;;;;;24.38;nan;-24493.31;5034458;28;20200;-66
2022/09/14 08:28:49;;;;;;;2.72;1.98;;;;;;;24.60;nan;-24499.38;5034332;28;20265;-66
2022/09/14 08:31:17;;;;;;;2.63;1.90;;;;;;;24.38;nan;-24493.19;5034456;28;20674;-66
2022/09/14 08:33:45;;;;;;;2.70;2.03;;;;;;;24.71;nan;-24502.16;5034934;28;20492;-66
2022/09/14 08:36:14;;;;;;;2.70;1.88;;;;;;;25.08;nan;-24512.47;5038821;28;20210;-65
2022/09/14 08:38:40;;;;;;;2.03;1.83;;;;;;;24.91;nan;-24507.66;5040830;28;20654;-65
2022/09/14 08:41:18;;;;;;;2.72;2.13;;;;;;;24.69;nan;-24501.72;5034245;28;20210;-65
2022/09/14 08:43:44;;;;;;;3.15;2.25;;;;;;;24.30;nan;-24491.13;5043148;28;20189;-65
2022/09/14 08:46:20;;;;;;;4.55;1.95;;;;;;;24.91;nan;-24507.66;5038480;28;20191;-66
2022/09/14 08:48:47;;;;;;;5.05;2.00;;;;;;;24.97;nan;-24509.44;5045949;28;20661;-65
2022/09/14 08:51:14;;;;;;;2.85;1.90;;;;;;;25.37;nan;-24520.19;5040777;28;20200;-65
2022/09/14 08:53:41;;;;;;;2.03;1.75;;;;;;;25.50;nan;-24523.75;5044523;28;20183;-65
2022/09/14 08:56:15;;;;;;;2.78;2.08;;;;;;;25.30;nan;-24518.25;5036205;28;20230;-66
2022/09/14 08:59:06;;;;;;;3.30;1.88;;;;;;;25.87;nan;-24533.94;5047510;28;20227;-67
2022/09/14 09:01:36;;;;;;;2.75;1.70;;;;;;;25.92;nan;-24535.19;5040732;28;20618;-65
2022/09/14 09:04:13;;;;;;;2.38;2.10;;;;;;;26.04;nan;-24538.47;5043412;28;20673;-66
2022/09/14 09:06:50;;;;;;;2.45;1.83;;;;;;;25.83;nan;-24532.69;5033210;28;20278;-65
2022/09/14 09:09:39;;;;;;;3.22;2.00;;;;;;;26.03;nan;-24538.06;5047185;28;20182;-66
2022/09/14 09:12:06;;;;;;;2.75;1.90;;;;;;;25.99;nan;-24537.09;5045703;28;20233;-66
2022/09/14 09:14:37;;;;;;;2.58;1.88;;;;;;;25.96;nan;-24536.28;5033109;28;20171;-66
2022/09/14 09:17:12;;;;;;;3.15;1.90;;;;;;;26.02;nan;-24537.94;5033047;28;20662;-66
2022/09/14 09:19:52;;;;;;;2.88;2.20;;;;;;;26.15;nan;-24541.50;5033145;28;20183;-66
2022/09/14 09:22:21;;;;;;;2.65;2.00;;;;;;;25.93;nan;-24535.59;5034268;28;20226;-65
2022/09/14 09:24:52;;;;;;;2.88;2.00;;;;;;;26.00;nan;-24537.22;5043536;28;20190;-65
2022/09/14 09:27:18;;;;;;;2.08;1.70;;;;;;;25.84;nan;-24532.97;5044752;28;20194;-65
2022/09/14 09:29:43;;;;;;;2.90;1.60;;;;;;;25.64;nan;-24527.63;5038973;28;20709;-66
2022/09/14 09:32:17;;;;;;;2.15;1.80;;;;;;;25.89;nan;-24534.34;5032897;28;20183;-66
2022/09/14 09:34:42;;;;;;;2.13;1.85;;;;;;;25.89;nan;-24534.34;5035171;28;20226;-65
2022/09/14 09:37:18;;;;;;;2.78;2.00;;;;;;;26.23;nan;-24543.69;5046076;28;20214;-65
2022/09/14 09:39:43;;;;;;;2.55;2.03;;;;;;;25.99;nan;-24537.09;5039637;28;20244;-66
2022/09/14 09:42:23;;;;;;;2.53;1.80;;;;;;;26.21;nan;-24543.16;5041876;28;20176;-66
2022/09/14 09:44:54;;;;;;;3.20;1.98;;;;;;;26.51;nan;-24551.25;5041677;28;20190;-66
2022/09/14 09:47:41;;;;;;;2.08;1.80;;;;;;;26.35;nan;-24547.00;5043733;28;20640;-65
2022/09/14 09:50:12;;;;;;;2.60;1.67;;;;;;;26.78;nan;-24558.53;5038468;28;20278;-65
2022/09/14 09:52:38;;;;;;;2.35;1.65;;;;;;;26.70;nan;-24556.31;5039865;28;20201;-66
2022/09/14 09:55:05;;;;;;;2.35;1.67;;;;;;;26.70;nan;-24556.47;5032727;28;20250;-66
2022/09/14 09:57:33;;;;;;;2.53;1.83;;;;;;;26.57;nan;-24552.75;5036369;28;20183;-65
2022/09/14 10:00:08;;;;;;;2.80;1.80;;;;;;;27.00;nan;-24564.56;5045559;28;20599;-66
2022/09/14 10:02:33;;;;;;;2.55;1.73;;;;;;;27.15;nan;-24568.69;5039831;28;20183;-66
2022/09/14 10:05:01;;;;;;;1.98;1.55;;;;;;;27.24;nan;-24571.16;5032523;28;20325;-66
2022/09/14 10:07:30;;;;;;;1.83;1.55;;;;;;;26.73;nan;-24557.28;5041979;28;20647;-65
2022/09/14 10:09:57;;;;;;;1.88;1.60;;;;;;;27.21;nan;-24570.31;5036922;28;20202;-66
2022/09/14 10:12:23;;;;;;;2.67;1.70;;;;;;;26.87;nan;-24560.88;5042888;28;20270;-65
2022/09/14 10:15:00;;;;;;;1.48;1.33;;;;;;;27.12;nan;-24567.84;5032345;28;20230;-65
2022/09/14 10:17:26;;;;;;;2.20;1.50;;;;;;;27.01;nan;-24564.84;5027988;28;20244;-67
2022/09/14 10:19:53;;;;;;;4.95;1.60;;;;;;;26.80;nan;-24559.22;5042666;28;20175;-66
2022/09/14 10:22:29;;;;;;;2.55;1.65;;;;;;;27.16;nan;-24568.94;5041270;28;20693;-65
2022/09/14 10:24:58;;;;;;;1.67;1.58;;;;;;;27.18;nan;-24569.38;5031842;28;20265;-65
2022/09/14 10:27:53;;;;;;;2.58;1.50;;;;;;;27.27;nan;-24571.84;5038093;28;20176;-66
2022/09/14 10:30:22;;;;;;;1.98;1.48;;;;;;;27.09;nan;-24566.91;5036342;28;20207;-66
2022/09/14 10:32:54;;;;;;;2.42;1.70;;;;;;;27.66;nan;-24582.53;5031572;28;20183;-65
2022/09/14 10:35:24;;;;;;;2.33;1.88;;;;;;;27.59;nan;-24580.59;5030392;28;20172;-66
2022/09/14 10:38:26;;;;;;;1.75;1.35;;;;;;;27.51;nan;-24578.28;5043180;28;20190;-65
2022/09/14 10:41:03;;;;;;;2.05;1.55;;;;;;;27.54;nan;-24579.09;5032318;28;20206;-66
2022/09/14 10:43:52;;;;;;;2.95;1.83;;;;;;;27.51;nan;-24578.28;5044470;28;20637;-67
2022/09/14 10:46:29;;;;;;;2.15;1.50;;;;;;;27.21;nan;-24570.19;5037793;28;20183;-66
2022/09/14 10:49:06;;;;;;;2.97;1.75;;;;;;;27.50;nan;-24578.16;5043450;28;20193;-64
2022/09/14 10:51:55;;;;;;;3.20;1.67;;;;;;;27.71;nan;-24583.63;5041045;28;20202;-66
2022/09/14 10:54:32;;;;;;;2.40;1.60;;;;;;;27.70;nan;-24583.47;5045154;28;20218;-65
2022/09/14 10:57:30;;;;;;;3.80;1.67;;;;;;;27.66;nan;-24582.38;5031816;28;20642;-64
2022/09/14 11:00:11;;;;;;;2.85;1.35;;;;;;;27.29;nan;-24572.38;5019502;28;20183;-64
2022/09/14 11:03:01;;;;;;;2.25;1.65;;;;;;;27.79;nan;-24585.94;5031773;28;20179;-64
2022/09/14 11:05:35;;;;;;;1.90;1.55;;;;;;;27.84;nan;-24587.31;5032111;28;20171;-65
2022/09/14 11:08:22;;;;;;;1.88;1.63;;;;;;;28.14;nan;-24595.41;5031980;28;20167;-65
2022/09/14 11:10:59;;;;;;;2.40;1.60;;;;;;;28.19;nan;-24596.78;5031738;28;20252;-65
2022/09/14 11:13:41;;;;;;;4.05;2.05;;;;;;;28.31;nan;-24600.06;5031497;28;20194;-65
2022/09/14 11:16:29;;;;;;;1.65;1.48;;;;;;;28.32;nan;-24600.19;5031941;28;20167;-64
2022/09/14 11:19:26;;;;;;;2.95;1.70;;;;;;;28.24;nan;-24598.00;5033273;28;20193;-65
2022/09/14 11:22:03;;;;;;;1.85;1.50;;;;;;;27.83;nan;-24587.03;5042065;28;20643;-64
2022/09/14 11:24:41;;;;;;;2.33;1.52;;;;;;;28.29;nan;-24599.50;5035759;28;20178;-64
2022/09/14 11:27:09;;;;;;;3.00;2.08;;;;;;;28.33;nan;-24600.59;5049557;28;20536;-64
2022/09/14 11:29:46;;;;;;;2.22;1.75;;;;;;;28.18;nan;-24596.50;5035374;28;20183;-65
2022/09/14 11:32:20;;;;;;;2.55;1.70;;;;;;;28.63;nan;-24608.53;5035117;28;20281;-64
2022/09/14 11:35:00;;;;;;;1.55;1.40;;;;;;;28.15;nan;-24595.53;5035586;28;20179;-66
2022/09/14 11:37:33;;;;;;;2.17;1.55;;;;;;;28.34;nan;-24600.75;5035343;28;20530;-64
2022/09/14 11:40:12;;;;;;;1.85;1.40;;;;;;;28.49;nan;-24604.97;5035756;28;20221;-65
2022/09/14 11:42:46;;;;;;;2.08;1.48;;;;;;;28.51;nan;-24605.38;5035062;28;20645;-65
2022/09/14 11:45:40;;;;;;;2.47;1.98;;;;;;;28.63;nan;-24608.53;5035299;28;20267;-65
2022/09/14 11:48:26;;;;;;;2.53;1.77;;;;;;;28.68;nan;-24610.03;5035626;28;20178;-65
2022/09/14 11:51:02;;;;;;;1.92;1.50;;;;;;;28.61;nan;-24608.13;5042334;28;20194;-65
2022/09/14 11:53:29;;;;;;;1.83;1.63;;;;;;;28.89;nan;-24615.66;5036322;28;20190;-65
2022/09/14 11:55:55;;;;;;;3.03;1.90;;;;;;;28.79;nan;-24612.91;5035336;28;20174;-65